Time;durP1;ratioP1;P1;durP2;ratioP2;P2;SDS_P1;SDS_P2;PMS_P1;PMS_P2;Temp;Humidity;BMP_temperature;BMP_pressure;BME280_temperature;BME280_humidity;BME280_pressure;Samples;Min_cycle;Max_cycle;Signal;HPM_P1;HPM_P2
2021/12/27 00:02:18;;;;;;;25.15;20.58;;;;;;;;;;5110914;28;20023;-39
2021/12/27 00:04:44;;;;;;;51.90;31.83;;;;;;;;;;5109114;28;20026;-41
2021/12/27 00:07:10;;;;;;;25.33;19.23;;;;;;;;;;5116513;28;20070;-40
2021/12/27 00:09:36;;;;;;;33.17;21.27;;;;;;;;;;5112758;28;20023;-38
2021/12/27 00:12:01;;;;;;;29.67;19.92;;;;;;;;;;5111540;28;20031;-40
2021/12/27 00:14:27;;;;;;;12.95;7.60;;;;;;;;;;5113501;28;20524;-39
2021/12/27 00:16:52;;;;;;;6.63;4.90;;;;;;;;;;5112737;28;20477;-38
2021/12/27 00:19:17;;;;;;;13.85;7.00;;;;;;;;;;5102479;28;20102;-38
2021/12/27 00:21:43;;;;;;;10.25;6.50;;;;;;;;;;5046200;28;1410350;-41
2021/12/27 00:24:08;;;;;;;8.88;5.28;;;;;;;;;;5112715;28;20510;-41
2021/12/27 00:26:33;;;;;;;3.60;2.80;;;;;;;;;;5113707;28;20047;-37
2021/12/27 00:28:59;;;;;;;7.30;4.50;;;;;;;;;;5111661;28;20016;-38
2021/12/27 00:31:24;;;;;;;4.97;3.75;;;;;;;;;;5115378;28;20073;-41
2021/12/27 00:33:49;;;;;;;6.18;3.30;;;;;;;;;;5111686;28;20023;-42
2021/12/27 00:36:15;;;;;;;5.97;3.22;;;;;;;;;;5112685;28;20064;-37
2021/12/27 00:38:40;;;;;;;6.57;3.03;;;;;;;;;;5110709;28;20015;-38
2021/12/27 00:41:05;;;;;;;6.30;2.00;;;;;;;;;;5111747;28;20169;-40
2021/12/27 00:43:31;;;;;;;3.20;1.92;;;;;;;;;;5118092;28;20031;-38
2021/12/27 00:45:56;;;;;;;3.33;2.15;;;;;;;;;;5115093;28;20102;-38
2021/12/27 00:48:21;;;;;;;14.93;2.50;;;;;;;;;;5113982;28;20448;-38
2021/12/27 00:50:47;;;;;;;2.45;1.45;;;;;;;;;;5112009;28;20102;-40
2021/12/27 00:53:12;;;;;;;4.05;1.65;;;;;;;;;;5113391;28;20553;-38
2021/12/27 00:55:37;;;;;;;5.10;1.65;;;;;;;;;;5115100;28;20031;-40
2021/12/27 00:58:03;;;;;;;4.88;2.30;;;;;;;;;;5116243;28;20027;-41
2021/12/27 01:00:28;;;;;;;5.07;3.88;;;;;;;;;;5113052;28;20068;-42
2021/12/27 01:02:54;;;;;;;4.10;2.75;;;;;;;;;;5097910;28;20034;-40
2021/12/27 01:05:20;;;;;;;6.10;2.65;;;;;;;;;;5113446;28;20076;-37
2021/12/27 01:07:45;;;;;;;3.95;2.30;;;;;;;;;;5116126;28;20149;-37
2021/12/27 01:13:19;;;;;;;5.13;3.80;;;;;;;;;;5117881;27;20568;-38
2021/12/27 01:16:10;;;;;;;3.53;2.03;;;;;;;;;;5114602;27;20024;-39
2021/12/27 01:18:33;;;;;;;2.45;0.93;;;;;;;;;;5114647;27;20119;-38
2021/12/27 01:20:59;;;;;;;1.42;0.57;;;;;;;;;;5114656;27;20051;-40
2021/12/27 01:23:25;;;;;;;5.40;0.68;;;;;;;;;;5116133;27;20023;-42
2021/12/27 01:25:50;;;;;;;0.57;0.38;;;;;;;;;;5118168;27;20537;-42
2021/12/27 01:28:16;;;;;;;0.93;0.45;;;;;;;;;;5120803;27;20019;-39
2021/12/27 01:30:47;;;;;;;0.80;0.40;;;;;;;;;;5115173;27;20546;-38
2021/12/27 01:33:13;;;;;;;0.22;0.20;;;;;;;;;;5112433;27;20061;-39
2021/12/27 01:35:39;;;;;;;0.95;0.45;;;;;;;;;;5113441;27;20034;-39
2021/12/27 01:38:04;;;;;;;1.65;0.63;;;;;;;;;;5116315;27;20024;-41
2021/12/27 01:40:31;;;;;;;0.90;0.47;;;;;;;;;;5114463;27;20012;-37
2021/12/27 01:43:02;;;;;;;0.40;0.30;;;;;;;;;;5114914;27;20047;-38
2021/12/27 01:45:28;;;;;;;0.60;0.30;;;;;;;;;;5115341;27;20019;-39
2021/12/27 01:47:53;;;;;;;0.95;0.50;;;;;;;;;;5115466;27;20802;-40
2021/12/27 01:50:18;;;;;;;0.20;0.10;;;;;;;;;;5115366;27;20023;-38
2021/12/27 01:52:44;;;;;;;1.13;0.50;;;;;;;;;;5122245;27;20022;-39
2021/12/27 01:55:09;;;;;;;1.90;0.57;;;;;;;;;;5117637;27;20024;-40
2021/12/27 01:57:34;;;;;;;0.20;0.20;;;;;;;;;;5115957;27;20016;-39
2021/12/27 02:00:00;;;;;;;2.53;0.73;;;;;;;;;;5118066;27;20033;-41
2021/12/27 02:02:25;;;;;;;0.80;0.32;;;;;;;;;;5117736;27;20024;-40
2021/12/27 02:04:51;;;;;;;1.02;0.47;;;;;;;;;;5116227;27;20539;-39
2021/12/27 02:07:16;;;;;;;1.75;0.40;;;;;;;;;;5115762;27;20027;-38
2021/12/27 02:09:52;;;;;;;1.45;0.20;;;;;;;;;;5115496;27;20030;-39
2021/12/27 02:12:17;;;;;;;1.48;0.52;;;;;;;;;;5116015;27;20091;-43
2021/12/27 02:14:42;;;;;;;2.20;0.43;;;;;;;;;;5114921;27;20023;-39
2021/12/27 02:17:08;;;;;;;0.50;0.17;;;;;;;;;;5096375;27;20489;-39
2021/12/27 02:19:35;;;;;;;0.68;0.43;;;;;;;;;;5116896;27;20115;-42
2021/12/27 02:22:00;;;;;;;0.68;0.50;;;;;;;;;;5094397;27;20104;-39
2021/12/27 02:24:25;;;;;;;1.65;0.63;;;;;;;;;;5115899;27;20031;-38
2021/12/27 02:26:51;;;;;;;0.93;0.40;;;;;;;;;;5112086;27;20090;-40
2021/12/27 02:29:16;;;;;;;1.15;0.20;;;;;;;;;;5113746;27;20483;-38
2021/12/27 02:31:42;;;;;;;0.20;0.20;;;;;;;;;;5113689;27;20035;-39
2021/12/27 02:34:10;;;;;;;0.80;0.38;;;;;;;;;;5111241;27;20023;-39
2021/12/27 02:36:35;;;;;;;1.38;0.52;;;;;;;;;;5114720;27;20384;-40
2021/12/27 02:39:00;;;;;;;0.85;0.50;;;;;;;;;;5116585;27;20027;-40
2021/12/27 02:41:26;;;;;;;0.05;0.05;;;;;;;;;;5116792;27;20604;-38
2021/12/27 02:43:51;;;;;;;1.15;0.28;;;;;;;;;;5116721;27;20039;-44
2021/12/27 02:46:16;;;;;;;0.55;0.30;;;;;;;;;;5117486;27;20485;-40
2021/12/27 02:48:46;;;;;;;0.60;0.20;;;;;;;;;;5115800;27;20033;-39
2021/12/27 02:51:12;;;;;;;0.17;0.15;;;;;;;;;;5115006;27;20027;-38
2021/12/27 02:53:37;;;;;;;0.47;0.00;;;;;;;;;;5117360;27;20099;-39
2021/12/27 02:56:05;;;;;;;1.15;0.40;;;;;;;;;;5114236;27;20019;-39
2021/12/27 02:58:30;;;;;;;1.38;0.28;;;;;;;;;;5117640;27;20023;-38
2021/12/27 03:01:01;;;;;;;0.28;0.20;;;;;;;;;;5116150;27;20038;-39
2021/12/27 03:03:27;;;;;;;0.35;0.30;;;;;;;;;;5110381;27;20032;-39
2021/12/27 03:05:53;;;;;;;0.55;0.30;;;;;;;;;;5111042;27;20620;-38
2021/12/27 03:08:19;;;;;;;1.80;0.45;;;;;;;;;;5112598;27;20041;-41
2021/12/27 03:10:46;;;;;;;0.88;0.22;;;;;;;;;;5111753;27;20019;-38
2021/12/27 03:13:17;;;;;;;0.63;0.30;;;;;;;;;;5115229;27;20028;-38
2021/12/27 03:15:42;;;;;;;0.77;0.28;;;;;;;;;;5113721;27;20449;-40
2021/12/27 03:18:08;;;;;;;0.50;0.35;;;;;;;;;;5119007;27;20027;-39
2021/12/27 03:20:33;;;;;;;1.27;0.80;;;;;;;;;;5118175;27;20100;-41
2021/12/27 03:22:58;;;;;;;0.20;0.10;;;;;;;;;;5113088;27;20712;-38
2021/12/27 03:25:25;;;;;;;0.50;0.20;;;;;;;;;;5116149;27;20102;-40
2021/12/27 03:27:50;;;;;;;0.32;0.15;;;;;;;;;;5113073;27;20018;-40
2021/12/27 03:30:17;;;;;;;1.05;0.70;;;;;;;;;;5114306;27;20015;-39
2021/12/27 03:32:42;;;;;;;0.35;0.25;;;;;;;;;;5110854;27;20326;-40
2021/12/27 03:35:13;;;;;;;0.40;0.20;;;;;;;;;;5097937;27;20142;-38
2021/12/27 03:37:39;;;;;;;0.32;0.15;;;;;;;;;;5113559;27;20027;-40
2021/12/27 03:40:06;;;;;;;0.22;0.10;;;;;;;;;;5115630;27;20551;-38
2021/12/27 03:42:31;;;;;;;1.13;0.50;;;;;;;;;;5114216;27;20547;-38
2021/12/27 03:44:57;;;;;;;0.60;0.35;;;;;;;;;;5114074;27;20030;-38
2021/12/27 03:47:22;;;;;;;1.85;0.60;;;;;;;;;;5111458;27;20441;-38
2021/12/27 03:49:47;;;;;;;0.30;0.20;;;;;;;;;;5093796;28;20028;-40
2021/12/27 03:52:12;;;;;;;0.40;0.20;;;;;;;;;;5112254;27;20033;-42
2021/12/27 03:54:38;;;;;;;0.10;0.10;;;;;;;;;;5113095;27;20532;-39
2021/12/27 03:57:03;;;;;;;0.00;0.00;;;;;;;;;;5112712;28;20020;-38
2021/12/27 03:59:52;;;;;;;0.30;0.10;;;;;;;;;;5114036;28;20023;-38
2021/12/27 04:02:17;;;;;;;0.30;0.30;;;;;;;;;;5114423;28;20024;-37
2021/12/27 04:04:43;;;;;;;0.10;0.10;;;;;;;;;;5113906;28;20534;-38
2021/12/27 04:07:09;;;;;;;1.60;0.93;;;;;;;;;;5114546;28;20023;-38
2021/12/27 04:09:35;;;;;;;1.05;0.47;;;;;;;;;;5116863;28;20050;-38
2021/12/27 04:12:00;;;;;;;0.75;0.40;;;;;;;;;;5114149;28;20453;-38
2021/12/27 04:14:25;;;;;;;0.45;0.30;;;;;;;;;;5109795;28;20026;-40
2021/12/27 04:16:51;;;;;;;0.63;0.30;;;;;;;;;;5111658;28;20056;-38
2021/12/27 04:19:16;;;;;;;0.75;0.30;;;;;;;;;;5110664;28;20024;-37
2021/12/27 04:21:42;;;;;;;3.13;0.63;;;;;;;;;;5114408;27;20075;-39
2021/12/27 04:24:07;;;;;;;0.90;0.50;;;;;;;;;;5115962;28;20019;-38
2021/12/27 04:26:33;;;;;;;0.95;0.40;;;;;;;;;;5113856;28;20107;-40
2021/12/27 04:28:58;;;;;;;0.40;0.20;;;;;;;;;;5112727;28;20058;-40
2021/12/27 04:31:23;;;;;;;7.30;0.65;;;;;;;;;;5113567;28;20454;-38
2021/12/27 04:33:49;;;;;;;0.38;0.20;;;;;;;;;;5116757;28;20015;-39
2021/12/27 04:36:14;;;;;;;0.80;0.30;;;;;;;;;;5114774;28;20555;-38
2021/12/27 04:38:42;;;;;;;1.13;0.60;;;;;;;;;;5115103;28;20034;-38
2021/12/27 04:41:08;;;;;;;0.77;0.43;;;;;;;;;;5117725;28;20045;-38
2021/12/27 04:43:33;;;;;;;1.58;0.47;;;;;;;;;;5117993;27;20027;-41
2021/12/27 04:45:59;;;;;;;0.75;0.22;;;;;;;;;;5121224;27;20023;-38
2021/12/27 04:48:24;;;;;;;0.75;0.32;;;;;;;;;;5120023;27;20075;-38
2021/12/27 04:50:50;;;;;;;1.40;0.47;;;;;;;;;;5118415;27;20039;-38
2021/12/27 04:53:16;;;;;;;0.63;0.52;;;;;;;;;;5117366;27;20016;-39
2021/12/27 04:55:41;;;;;;;12.25;0.93;;;;;;;;;;5120163;27;20417;-38
2021/12/27 04:58:10;;;;;;;0.57;0.30;;;;;;;;;;5116854;27;20362;-41
2021/12/27 05:00:36;;;;;;;1.88;0.50;;;;;;;;;;5121353;27;20138;-38
2021/12/27 05:03:01;;;;;;;0.25;0.20;;;;;;;;;;5115695;27;20057;-39
2021/12/27 05:05:27;;;;;;;0.70;0.30;;;;;;;;;;5117824;27;20027;-37
2021/12/27 05:07:52;;;;;;;1.15;0.50;;;;;;;;;;5103528;27;20464;-41
2021/12/27 05:10:18;;;;;;;0.70;0.30;;;;;;;;;;5119639;27;20024;-41
2021/12/27 05:12:44;;;;;;;0.80;0.40;;;;;;;;;;5121175;27;20055;-37
2021/12/27 05:15:09;;;;;;;1.80;0.77;;;;;;;;;;5121416;27;20030;-39
2021/12/27 05:17:34;;;;;;;3.13;0.80;;;;;;;;;;5118229;27;20033;-36
2021/12/27 05:20:04;;;;;;;0.25;0.20;;;;;;;;;;5117971;27;20027;-39
2021/12/27 05:22:30;;;;;;;0.20;0.20;;;;;;;;;;5118622;27;20031;-37
2021/12/27 05:24:55;;;;;;;0.22;0.20;;;;;;;;;;5118123;27;20034;-36
2021/12/27 05:27:21;;;;;;;4.78;0.57;;;;;;;;;;5120912;27;20078;-36
2021/12/27 05:29:46;;;;;;;0.68;0.30;;;;;;;;;;5119411;27;20019;-37
2021/12/27 05:32:11;;;;;;;0.60;0.40;;;;;;;;;;5115683;27;20058;-38
2021/12/27 05:34:37;;;;;;;0.80;0.40;;;;;;;;;;5116355;27;20015;-38
2021/12/27 05:37:02;;;;;;;0.90;0.30;;;;;;;;;;5118265;27;20106;-40
2021/12/27 05:39:28;;;;;;;0.45;0.30;;;;;;;;;;5121174;27;20480;-36
2021/12/27 05:41:53;;;;;;;1.23;0.45;;;;;;;;;;5120425;27;20126;-41
2021/12/27 05:44:18;;;;;;;0.43;0.20;;;;;;;;;;5117926;27;20705;-40
2021/12/27 05:46:44;;;;;;;2.05;0.57;;;;;;;;;;5118793;27;20031;-37
2021/12/27 05:49:10;;;;;;;1.48;0.45;;;;;;;;;;5120807;27;20420;-37
2021/12/27 05:51:36;;;;;;;1.02;0.20;;;;;;;;;;5114576;27;20023;-40
2021/12/27 05:54:03;;;;;;;0.63;0.40;;;;;;;;;;5117063;27;20022;-39
2021/12/27 05:56:32;;;;;;;1.52;0.80;;;;;;;;;;5118065;27;20024;-37
2021/12/27 05:58:57;;;;;;;2.72;0.90;;;;;;;;;;5124242;27;20031;-37
2021/12/27 06:01:22;;;;;;;3.15;0.70;;;;;;;;;;5118899;27;20023;-39
2021/12/27 06:03:48;;;;;;;1.48;0.40;;;;;;;;;;5118239;27;20023;-37
2021/12/27 06:06:14;;;;;;;0.95;0.28;;;;;;;;;;5117126;27;20032;-37
2021/12/27 06:08:40;;;;;;;1.05;0.60;;;;;;;;;;5115440;27;20020;-37
2021/12/27 06:11:05;;;;;;;3.38;1.33;;;;;;;;;;5117695;27;20049;-37
2021/12/27 06:13:30;;;;;;;2.97;1.13;;;;;;;;;;5116081;27;20026;-39
2021/12/27 06:15:55;;;;;;;1.95;0.93;;;;;;;;;;5121725;27;20525;-37
2021/12/27 06:18:21;;;;;;;2.97;1.27;;;;;;;;;;5117433;27;20523;-37
2021/12/27 06:20:47;;;;;;;3.42;0.80;;;;;;;;;;5121667;27;20039;-39
2021/12/27 06:23:12;;;;;;;9.90;2.28;;;;;;;;;;5120220;27;20463;-37
2021/12/27 06:25:37;;;;;;;8.40;0.80;;;;;;;;;;5120843;27;20019;-38
2021/12/27 06:28:03;;;;;;;1.17;0.50;;;;;;;;;;5113965;27;20463;-42
2021/12/27 06:30:28;;;;;;;1.80;1.00;;;;;;;;;;5116188;27;20061;-38
2021/12/27 06:32:53;;;;;;;3.58;0.90;;;;;;;;;;5116239;27;20053;-38
2021/12/27 06:35:19;;;;;;;1.23;0.73;;;;;;;;;;5115405;27;20031;-39
2021/12/27 06:37:46;;;;;;;1.20;0.50;;;;;;;;;;5116610;27;20022;-38
2021/12/27 06:40:12;;;;;;;1.70;0.65;;;;;;;;;;5119152;27;20020;-38
2021/12/27 06:42:38;;;;;;;1.20;1.08;;;;;;;;;;5119513;27;20026;-38
2021/12/27 06:45:04;;;;;;;4.68;1.20;;;;;;;;;;5121494;27;20020;-38
2021/12/27 06:47:29;;;;;;;3.28;0.98;;;;;;;;;;5119271;27;20038;-39
2021/12/27 06:49:54;;;;;;;0.40;0.22;;;;;;;;;;5119133;27;20490;-44
2021/12/27 06:52:20;;;;;;;1.88;0.77;;;;;;;;;;5116345;27;20439;-40
2021/12/27 06:54:45;;;;;;;0.95;0.55;;;;;;;;;;5114415;27;20020;-40
2021/12/27 06:57:12;;;;;;;2.38;0.50;;;;;;;;;;5109813;27;20016;-38
2021/12/27 06:59:37;;;;;;;1.02;0.30;;;;;;;;;;5114140;27;20509;-38
2021/12/27 07:02:03;;;;;;;1.83;0.47;;;;;;;;;;5119228;27;20030;-38
2021/12/27 07:04:28;;;;;;;0.63;0.43;;;;;;;;;;5116538;27;20357;-37
2021/12/27 07:06:53;;;;;;;3.42;1.17;;;;;;;;;;5116348;27;20023;-37
2021/12/27 07:09:19;;;;;;;4.57;0.85;;;;;;;;;;5116489;27;20039;-39
2021/12/27 07:11:44;;;;;;;0.50;0.43;;;;;;;;;;5112476;27;20106;-41
2021/12/27 07:14:10;;;;;;;3.33;1.10;;;;;;;;;;5116783;27;20511;-38
2021/12/27 07:16:35;;;;;;;3.95;1.70;;;;;;;;;;5116784;27;20039;-39
2021/12/27 07:19:01;;;;;;;1.58;0.82;;;;;;;;;;5120143;27;20026;-39
2021/12/27 07:21:26;;;;;;;3.85;1.13;;;;;;;;;;5115878;27;20572;-39
2021/12/27 07:23:51;;;;;;;0.77;0.25;;;;;;;;;;5116906;27;20476;-37
2021/12/27 07:26:17;;;;;;;9.48;1.75;;;;;;;;;;5116304;27;20398;-39
2021/12/27 07:28:42;;;;;;;5.20;0.77;;;;;;;;;;5113878;27;20070;-42
2021/12/27 07:31:09;;;;;;;5.95;1.05;;;;;;;;;;5117151;27;20027;-37
2021/12/27 07:33:35;;;;;;;3.78;1.33;;;;;;;;;;5116606;27;20094;-39
2021/12/27 07:36:00;;;;;;;3.17;1.75;;;;;;;;;;5119748;27;20208;-38
2021/12/27 07:38:26;;;;;;;2.92;0.90;;;;;;;;;;5114961;27;20537;-38
2021/12/27 07:40:51;;;;;;;5.07;0.77;;;;;;;;;;5116150;27;20026;-40
2021/12/27 07:43:16;;;;;;;1.38;0.93;;;;;;;;;;5113836;27;20024;-40
2021/12/27 07:45:42;;;;;;;4.55;1.40;;;;;;;;;;5115159;27;20027;-42
2021/12/27 07:48:09;;;;;;;1.85;0.70;;;;;;;;;;5117303;27;20015;-44
2021/12/27 07:50:35;;;;;;;1.85;0.65;;;;;;;;;;5115246;27;20121;-40
2021/12/27 07:53:00;;;;;;;0.95;0.63;;;;;;;;;;5115828;27;20468;-41
2021/12/27 07:55:27;;;;;;;5.00;1.30;;;;;;;;;;5120150;27;20023;-42
2021/12/27 07:57:53;;;;;;;10.88;0.85;;;;;;;;;;5115143;28;20019;-43
2021/12/27 08:00:19;;;;;;;5.75;1.20;;;;;;;;;;5113601;28;20156;-40
2021/12/27 08:02:44;;;;;;;5.63;0.85;;;;;;;;;;5115051;28;20510;-40
2021/12/27 08:05:14;;;;;;;4.32;0.47;;;;;;;;;;5111027;28;20016;-42
2021/12/27 08:07:39;;;;;;;2.88;0.73;;;;;;;;;;5116597;28;20027;-41
2021/12/27 08:10:05;;;;;;;14.65;2.25;;;;;;;;;;5117624;28;20040;-45
2021/12/27 08:12:31;;;;;;;1.83;1.00;;;;;;;;;;5115323;28;20030;-41
2021/12/27 08:14:56;;;;;;;5.22;1.63;;;;;;;;;;5113330;28;20008;-43
2021/12/27 08:17:21;;;;;;;3.35;0.77;;;;;;;;;;5106335;27;20115;-42
2021/12/27 08:19:47;;;;;;;1.65;0.75;;;;;;;;;;5118871;27;20023;-43
2021/12/27 08:22:12;;;;;;;8.38;1.92;;;;;;;;;;5120023;27;20531;-40
2021/12/27 08:24:38;;;;;;;6.43;2.40;;;;;;;;;;5116408;27;20499;-41
2021/12/27 08:27:03;;;;;;;16.10;2.65;;;;;;;;;;5116433;27;20901;-43
2021/12/27 08:29:30;;;;;;;5.00;0.93;;;;;;;;;;5118518;27;20160;-41
2021/12/27 08:31:55;;;;;;;2.28;1.45;;;;;;;;;;5113043;27;20015;-42
2021/12/27 08:34:20;;;;;;;3.15;1.52;;;;;;;;;;5117292;27;20034;-41
2021/12/27 08:36:46;;;;;;;11.82;2.25;;;;;;;;;;5114985;27;20011;-40
2021/12/27 08:39:11;;;;;;;5.45;2.28;;;;;;;;;;5116185;27;20027;-40
2021/12/27 08:41:37;;;;;;;7.43;2.03;;;;;;;;;;5120872;27;20023;-40
2021/12/27 08:44:05;;;;;;;2.58;0.70;;;;;;;;;;5115526;27;20775;-40
2021/12/27 08:46:31;;;;;;;11.73;1.83;;;;;;;;;;5114600;27;20034;-42
2021/12/27 08:48:56;;;;;;;5.30;2.97;;;;;;;;;;5116657;27;20024;-41
2021/12/27 08:51:21;;;;;;;8.93;3.17;;;;;;;;;;5116729;27;20030;-42
2021/12/27 08:53:47;;;;;;;4.20;2.28;;;;;;;;;;5117213;27;20050;-43
2021/12/27 08:56:12;;;;;;;8.18;2.67;;;;;;;;;;5116692;27;20503;-44
2021/12/27 08:58:37;;;;;;;6.35;2.75;;;;;;;;;;5115193;27;20507;-40
2021/12/27 09:01:03;;;;;;;8.30;5.90;;;;;;;;;;5118616;27;20023;-42
2021/12/27 09:03:28;;;;;;;9.20;3.72;;;;;;;;;;5119858;27;20059;-41
2021/12/27 09:05:53;;;;;;;2.25;1.17;;;;;;;;;;5115941;27;20725;-40
2021/12/27 09:08:19;;;;;;;8.38;2.40;;;;;;;;;;5112689;27;20020;-42
2021/12/27 09:10:44;;;;;;;4.28;1.73;;;;;;;;;;5117706;27;20669;-41
2021/12/27 09:13:09;;;;;;;3.28;1.55;;;;;;;;;;5119720;27;20438;-41
2021/12/27 09:15:35;;;;;;;5.70;1.90;;;;;;;;;;5115342;27;20019;-40
2021/12/27 09:18:00;;;;;;;15.55;8.70;;;;;;;;;;5113167;27;20197;-39
2021/12/27 09:20:27;;;;;;;13.55;5.07;;;;;;;;;;5115521;27;20610;-39
2021/12/27 09:22:53;;;;;;;5.82;3.40;;;;;;;;;;5117769;27;20306;-41
2021/12/27 09:25:18;;;;;;;10.55;2.10;;;;;;;;;;5117702;27;20468;-41
2021/12/27 09:27:43;;;;;;;7.88;0.90;;;;;;;;;;5111012;27;20046;-43
2021/12/27 09:30:09;;;;;;;2.85;1.10;;;;;;;;;;5118696;27;20038;-40
2021/12/27 09:32:35;;;;;;;2.05;0.60;;;;;;;;;;5119324;27;20177;-46
2021/12/27 09:35:00;;;;;;;2.22;0.95;;;;;;;;;;5114073;27;20023;-41
2021/12/27 09:37:25;;;;;;;1.85;1.05;;;;;;;;;;5115955;27;20023;-44
2021/12/27 09:39:53;;;;;;;3.55;1.33;;;;;;;;;;5116112;27;20034;-42
2021/12/27 09:42:23;;;;;;;2.22;1.50;;;;;;;;;;5115857;27;20055;-39
2021/12/27 09:44:48;;;;;;;10.35;1.98;;;;;;;;;;5118704;27;20496;-40
2021/12/27 09:47:13;;;;;;;1.67;1.08;;;;;;;;;;5116470;27;20137;-43
2021/12/27 09:49:39;;;;;;;2.78;1.60;;;;;;;;;;5117135;27;20027;-42
2021/12/27 09:52:05;;;;;;;2.60;1.50;;;;;;;;;;5113305;27;20038;-43
2021/12/27 09:54:30;;;;;;;4.85;1.45;;;;;;;;;;5117057;27;20015;-45
2021/12/27 09:56:55;;;;;;;1.55;0.77;;;;;;;;;;5114771;27;20504;-44
2021/12/27 09:59:22;;;;;;;1.35;0.65;;;;;;;;;;5112815;27;20056;-41
2021/12/27 10:01:48;;;;;;;0.95;0.70;;;;;;;;;;5108820;27;20023;-41
2021/12/27 10:04:13;;;;;;;1.27;0.60;;;;;;;;;;5118373;27;20079;-43
2021/12/27 10:06:39;;;;;;;0.93;0.30;;;;;;;;;;5115317;27;20019;-44
2021/12/27 10:09:05;;;;;;;1.02;0.52;;;;;;;;;;5115096;27;20032;-44
2021/12/27 10:11:38;;;;;;;1.67;0.75;;;;;;;;;;5112623;27;20088;-42
2021/12/27 10:14:09;;;;;;;2.70;0.63;;;;;;;;;;5114873;27;20173;-43
2021/12/27 10:16:36;;;;;;;2.33;1.13;;;;;;;;;;5112840;27;20541;-43
2021/12/27 10:19:03;;;;;;;5.05;1.05;;;;;;;;;;5115289;27;20499;-46
2021/12/27 10:21:28;;;;;;;4.95;1.83;;;;;;;;;;5110841;27;20056;-43
2021/12/27 10:24:01;;;;;;;5.00;1.25;;;;;;;;;;5117895;27;20075;-43
2021/12/27 10:26:28;;;;;;;2.15;0.55;;;;;;;;;;5112145;27;20829;-44
2021/12/27 10:29:13;;;;;;;5.30;1.48;;;;;;;;;;5116083;27;20031;-42
2021/12/27 10:32:09;;;;;;;2.97;1.42;;;;;;;;;;5111999;27;20024;-41
2021/12/27 10:34:48;;;;;;;2.20;0.50;;;;;;;;;;5094831;27;20093;-44
2021/12/27 10:37:20;;;;;;;8.93;2.00;;;;;;;;;;5111352;27;20027;-46
2021/12/27 10:39:57;;;;;;;6.63;1.15;;;;;;;;;;5112958;27;20058;-42
2021/12/27 10:42:28;;;;;;;8.57;6.22;;;;;;;;;;5109582;27;20031;-42
2021/12/27 10:44:55;;;;;;;2.40;1.00;;;;;;;;;;5115179;27;20022;-45
2021/12/27 10:47:32;;;;;;;2.28;0.95;;;;;;;;;;5117506;27;20080;-44
2021/12/27 10:50:04;;;;;;;4.40;1.15;;;;;;;;;;5115260;27;20023;-47
2021/12/27 10:52:41;;;;;;;3.22;1.55;;;;;;;;;;5112975;27;20024;-41
2021/12/27 10:55:07;;;;;;;3.00;1.35;;;;;;;;;;5114771;27;20112;-44
2021/12/27 10:57:32;;;;;;;3.85;1.05;;;;;;;;;;5116613;27;20047;-46
2021/12/27 11:00:18;;;;;;;2.70;0.90;;;;;;;;;;5115859;27;20100;-44
2021/12/27 11:02:43;;;;;;;10.15;2.50;;;;;;;;;;5116151;27;20087;-43
2021/12/27 11:05:27;;;;;;;3.40;1.50;;;;;;;;;;5118017;27;20567;-42
2021/12/27 11:08:00;;;;;;;6.35;1.40;;;;;;;;;;5113121;27;20028;-47
2021/12/27 11:10:26;;;;;;;2.70;0.77;;;;;;;;;;5113179;27;20061;-43
2021/12/27 11:12:52;;;;;;;5.25;1.55;;;;;;;;;;5114160;27;20484;-44
2021/12/27 11:15:20;;;;;;;0.60;0.52;;;;;;;;;;5112943;27;20023;-43
2021/12/27 11:17:46;;;;;;;7.65;1.25;;;;;;;;;;5113600;27;20019;-46
2021/12/27 11:20:12;;;;;;;3.42;1.75;;;;;;;;;;5116943;27;20072;-47
2021/12/27 11:22:38;;;;;;;1.10;0.75;;;;;;;;;;5115671;27;20839;-42
2021/12/27 11:25:06;;;;;;;1.95;1.13;;;;;;;;;;5114390;27;20114;-46
2021/12/27 11:27:35;;;;;;;4.38;0.82;;;;;;;;;;5111217;27;20522;-44
2021/12/27 11:30:09;;;;;;;2.00;1.05;;;;;;;;;;5112411;27;20084;-44
2021/12/27 11:32:35;;;;;;;7.97;2.25;;;;;;;;;;5110564;27;20047;-46
2021/12/27 11:35:03;;;;;;;3.95;1.45;;;;;;;;;;5112879;27;20437;-44
2021/12/27 11:37:39;;;;;;;1.08;0.70;;;;;;;;;;5114679;27;20026;-48
2021/12/27 11:40:05;;;;;;;12.18;2.05;;;;;;;;;;5113603;27;20038;-45
2021/12/27 11:42:50;;;;;;;3.67;1.23;;;;;;;;;;5112348;27;20023;-42
2021/12/27 11:45:35;;;;;;;2.20;1.10;;;;;;;;;;5114384;27;20033;-43
2021/12/27 11:48:10;;;;;;;6.78;3.78;;;;;;;;;;5113786;27;20098;-43
2021/12/27 11:51:06;;;;;;;2.65;0.90;;;;;;;;;;5115114;27;20023;-50
2021/12/27 11:53:32;;;;;;;2.28;1.00;;;;;;;;;;5098563;27;20028;-43
2021/12/27 11:55:58;;;;;;;1.63;0.98;;;;;;;;;;5114551;27;20067;-43
2021/12/27 11:58:32;;;;;;;1.55;0.65;;;;;;;;;;5112089;28;20348;-45
2021/12/27 12:00:58;;;;;;;3.83;0.68;;;;;;;;;;5116667;28;20118;-43
2021/12/27 12:03:37;;;;;;;11.27;0.93;;;;;;;;;;5117614;28;20383;-42
2021/12/27 12:06:03;;;;;;;3.53;1.50;;;;;;;;;;5112986;28;20828;-42
2021/12/27 12:08:28;;;;;;;0.65;0.40;;;;;;;;;;5114824;28;20027;-44
2021/12/27 12:10:57;;;;;;;0.90;0.57;;;;;;;;;;5097456;28;20015;-46
2021/12/27 12:13:26;;;;;;;0.80;0.38;;;;;;;;;;5115795;28;20024;-46
2021/12/27 12:15:59;;;;;;;4.50;0.80;;;;;;;;;;5114279;28;20019;-47
2021/12/27 12:18:25;;;;;;;0.20;0.20;;;;;;;;;;5114504;28;20026;-46
2021/12/27 12:20:50;;;;;;;1.38;0.30;;;;;;;;;;5114179;28;20662;-47
2021/12/27 12:23:16;;;;;;;2.53;0.88;;;;;;;;;;5114294;28;20401;-43
2021/12/27 12:25:41;;;;;;;1.35;0.95;;;;;;;;;;5113816;28;20039;-44
2021/12/27 12:28:11;;;;;;;3.78;0.30;;;;;;;;;;5115498;28;20360;-47
2021/12/27 12:30:38;;;;;;;1.27;0.65;;;;;;;;;;5118663;28;20027;-45
2021/12/27 12:33:15;;;;;;;1.00;0.32;;;;;;;;;;5116201;28;20544;-41
2021/12/27 12:35:41;;;;;;;0.55;0.43;;;;;;;;;;5116268;28;20054;-42
2021/12/27 12:38:10;;;;;;;6.68;0.90;;;;;;;;;;5115633;28;20034;-41
2021/12/27 12:40:35;;;;;;;0.05;0.05;;;;;;;;;;5115959;28;20030;-42
2021/12/27 12:43:01;;;;;;;1.70;0.40;;;;;;;;;;5118417;28;20045;-42
2021/12/27 12:45:32;;;;;;;0.90;0.70;;;;;;;;;;5118259;28;20047;-44
2021/12/27 12:47:58;;;;;;;1.35;0.40;;;;;;;;;;5110305;28;20024;-41
2021/12/27 12:50:23;;;;;;;0.82;0.32;;;;;;;;;;5113644;28;20027;-44
2021/12/27 12:52:49;;;;;;;0.13;0.10;;;;;;;;;;5112079;28;20642;-47
2021/12/27 12:55:15;;;;;;;0.82;0.30;;;;;;;;;;5114699;28;20033;-44
2021/12/27 12:57:46;;;;;;;0.30;0.10;;;;;;;;;;5110167;28;20027;-42
2021/12/27 13:00:11;;;;;;;;;;;;;;;;;;5114230;28;20492;-41
2021/12/27 13:02:36;;;;;;;0.50;0.25;;;;;;;;;;5114306;28;19919;-42
2021/12/27 13:05:05;;;;;;;0.20;0.20;;;;;;;;;;5116224;27;20404;-41
2021/12/27 13:07:34;;;;;;;0.85;0.70;;;;;;;;;;5113646;27;20026;-42
2021/12/27 13:10:00;;;;;;;1.15;0.30;;;;;;;;;;5116110;27;20023;-45
2021/12/27 13:12:26;;;;;;;1.48;0.38;;;;;;;;;;5114903;27;20019;-42
2021/12/27 13:14:52;;;;;;;1.20;0.45;;;;;;;;;;5117093;27;20329;-41
2021/12/27 13:17:19;;;;;;;1.25;0.85;;;;;;;;;;5114289;27;20023;-45
2021/12/27 13:20:03;;;;;;;3.05;0.73;;;;;;;;;;5113197;27;20030;-39
2021/12/27 13:22:37;;;;;;;1.92;0.40;;;;;;;;;;5115620;27;20120;-42
2021/12/27 13:25:03;;;;;;;3.95;0.70;;;;;;;;;;5118393;27;20074;-43
2021/12/27 13:27:29;;;;;;;1.05;0.25;;;;;;;;;;5113794;27;20028;-37
2021/12/27 13:30:03;;;;;;;11.18;0.63;;;;;;;;;;5119269;27;20023;-42
2021/12/27 13:32:28;;;;;;;3.10;1.02;;;;;;;;;;5112296;27;20445;-39
2021/12/27 13:34:54;;;;;;;1.33;0.70;;;;;;;;;;5095604;27;20489;-38
2021/12/27 13:37:19;;;;;;;3.17;0.98;;;;;;;;;;5116235;27;20023;-38
2021/12/27 13:39:44;;;;;;;0.75;0.30;;;;;;;;;;5116420;27;20080;-41
2021/12/27 13:42:11;;;;;;;1.05;0.40;;;;;;;;;;5117951;27;20448;-39
2021/12/27 13:44:37;;;;;;;4.13;1.00;;;;;;;;;;5116621;27;20055;-44
2021/12/27 13:47:11;;;;;;;2.33;0.82;;;;;;;;;;5114686;27;20046;-38
2021/12/27 13:49:41;;;;;;;6.80;0.82;;;;;;;;;;5117974;27;20038;-39
2021/12/27 13:52:11;;;;;;;2.75;1.58;;;;;;;;;;5114887;27;20027;-44
2021/12/27 13:54:41;;;;;;;1.10;0.47;;;;;;;;;;5115496;27;20080;-43
2021/12/27 13:57:07;;;;;;;3.97;1.37;;;;;;;;;;5120607;27;20023;-41
2021/12/27 13:59:34;;;;;;;3.05;0.82;;;;;;;;;;5119578;27;20459;-39
2021/12/27 14:02:01;;;;;;;7.10;1.42;;;;;;;;;;5114010;27;20027;-42
2021/12/27 14:04:27;;;;;;;10.23;1.75;;;;;;;;;;5116067;27;20034;-43
2021/12/27 14:06:54;;;;;;;1.20;0.52;;;;;;;;;;5116268;27;20034;-41
2021/12/27 14:09:21;;;;;;;4.13;0.52;;;;;;;;;;5116230;27;20035;-40
2021/12/27 14:11:48;;;;;;;2.30;0.57;;;;;;;;;;5115041;27;20023;-45
2021/12/27 14:14:14;;;;;;;6.60;1.65;;;;;;;;;;5118130;27;20033;-42
2021/12/27 14:16:40;;;;;;;3.88;2.45;;;;;;;;;;5114172;27;20399;-42
2021/12/27 14:19:05;;;;;;;2.00;1.33;;;;;;;;;;5115349;27;20035;-43
2021/12/27 14:21:51;;;;;;;1.80;0.70;;;;;;;;;;5116161;27;20058;-39
2021/12/27 14:24:17;;;;;;;8.35;2.00;;;;;;;;;;5114000;27;20058;-39
2021/12/27 14:26:47;;;;;;;6.90;4.22;;;;;;;;;;5114408;27;20519;-40
2021/12/27 14:29:13;;;;;;;2.50;2.17;;;;;;;;;;5113704;27;20068;-39
2021/12/27 14:31:39;;;;;;;8.60;6.47;;;;;;;;;;5115159;27;20015;-39
2021/12/27 14:34:04;;;;;;;3.40;2.40;;;;;;;;;;5114520;27;20026;-41
2021/12/27 14:36:30;;;;;;;5.38;3.08;;;;;;;;;;5121136;27;20098;-39
2021/12/27 14:38:55;;;;;;;10.90;8.13;;;;;;;;;;5115020;27;20111;-41
2021/12/27 14:41:21;;;;;;;7.53;4.30;;;;;;;;;;5116521;27;20106;-43
2021/12/27 14:43:47;;;;;;;12.95;10.55;;;;;;;;;;5113164;27;20495;-44
2021/12/27 14:46:12;;;;;;;13.45;8.50;;;;;;;;;;5115724;27;20027;-39